Time;durP1;ratioP1;P1;durP2;ratioP2;P2;SDS_P1;SDS_P2;PMS_P1;PMS_P2;Temp;Humidity;BMP_temperature;BMP_pressure;BME280_temperature;BME280_humidity;BME280_pressure;Samples;Min_cycle;Max_cycle;Signal;HPM_P1;HPM_P2
2022/03/17 00:01:49;;;;;;;24.43;18.47;;;10.30;99.90;;;;;;5038736;28;20177;-43
2022/03/17 00:04:14;;;;;;;25.50;18.53;;;10.30;99.90;;;;;;5056526;28;20684;-42
2022/03/17 00:06:41;;;;;;;23.77;17.70;;;10.30;99.90;;;;;;5056580;28;20671;-41
2022/03/17 00:09:07;;;;;;;25.83;19.23;;;10.30;99.90;;;;;;5056533;28;20256;-42
2022/03/17 00:11:35;;;;;;;26.00;18.13;;;10.30;99.90;;;;;;5039346;28;20209;-44
2022/03/17 00:14:01;;;;;;;24.43;18.23;;;10.30;99.90;;;;;;5057387;28;20165;-42
2022/03/17 00:16:28;;;;;;;24.97;17.77;;;10.30;99.90;;;;;;5057235;28;20217;-43
2022/03/17 00:18:55;;;;;;;27.73;18.40;;;10.30;99.90;;;;;;5056500;28;20657;-42
2022/03/17 00:21:21;;;;;;;20.43;15.47;;;10.20;99.90;;;;;;5056625;28;20181;-43
2022/03/17 00:23:47;;;;;;;25.63;19.30;;;10.20;99.90;;;;;;5056676;28;20227;-42
2022/03/17 00:26:12;;;;;;;23.97;16.23;;;10.20;99.90;;;;;;5038551;28;20658;-43
2022/03/17 00:28:39;;;;;;;26.13;18.67;;;10.20;99.90;;;;;;5056501;28;20238;-40
2022/03/17 00:31:04;;;;;;;24.13;17.27;;;10.20;99.90;;;;;;5039228;28;20212;-42
2022/03/17 00:33:30;;;;;;;25.13;18.10;;;10.20;99.90;;;;;;5057246;28;20180;-41
2022/03/17 00:35:55;;;;;;;25.10;17.23;;;10.20;99.90;;;;;;5057609;28;20172;-39
2022/03/17 00:38:21;;;;;;;24.17;18.90;;;10.20;99.90;;;;;;5057500;28;20203;-42
2022/03/17 00:40:47;;;;;;;29.93;20.53;;;10.20;99.90;;;;;;5056733;28;20722;-42
2022/03/17 00:43:14;;;;;;;27.13;18.80;;;10.20;99.90;;;;;;5038395;28;20179;-43
2022/03/17 00:45:41;;;;;;;25.40;19.00;;;10.10;99.90;;;;;;5055577;28;20238;-40
2022/03/17 00:48:07;;;;;;;27.23;18.70;;;10.10;99.90;;;;;;5057076;28;20202;-46
2022/03/17 00:50:33;;;;;;;26.53;19.13;;;10.10;99.90;;;;;;5057198;28;20712;-47
2022/03/17 00:53:00;;;;;;;25.97;18.33;;;10.10;99.90;;;;;;5057770;28;20190;-45
2022/03/17 00:55:26;;;;;;;26.17;19.57;;;11.70;99.90;;;;;;5039064;28;20276;-46
2022/03/17 00:57:52;;;;;;;24.40;19.17;;;10.10;99.90;;;;;;5057140;28;20250;-46
2022/03/17 01:00:18;;;;;;;25.73;19.20;;;10.10;99.90;;;;;;5039005;28;20182;-45
2022/03/17 01:02:47;;;;;;;26.23;19.57;;;10.10;99.90;;;;;;5057078;28;20192;-47
2022/03/17 01:05:13;;;;;;;26.37;20.57;;;10.00;99.90;;;;;;5039273;28;20193;-46
2022/03/17 01:07:39;;;;;;;27.10;19.60;;;10.10;99.90;;;;;;5039273;28;20589;-46
2022/03/17 01:10:06;;;;;;;25.37;18.93;;;10.00;99.90;;;;;;5056547;28;20247;-46
2022/03/17 01:12:32;;;;;;;26.80;20.07;;;10.00;99.90;;;;;;5056482;28;20749;-46
2022/03/17 01:14:59;;;;;;;25.07;19.13;;;10.00;99.90;;;;;;5056518;28;20208;-47
2022/03/17 01:17:24;;;;;;;24.60;18.50;;;10.00;99.90;;;;;;5021804;28;20227;-46
2022/03/17 01:19:50;;;;;;;28.70;19.40;;;10.00;99.90;;;;;;5056281;28;20608;-46
2022/03/17 01:22:16;;;;;;;28.97;17.23;;;10.00;99.90;;;;;;5038801;28;20189;-44
2022/03/17 01:24:42;;;;;;;29.43;19.23;;;10.00;99.90;;;;;;5056295;28;20596;-47
2022/03/17 01:27:08;;;;;;;25.50;19.80;;;10.00;99.90;;;;;;5056296;28;20234;-47
2022/03/17 01:29:34;;;;;;;28.50;20.67;;;10.00;99.90;;;;;;5057084;28;20220;-45
2022/03/17 01:32:00;;;;;;;29.77;19.60;;;10.00;99.90;;;;;;5022122;28;20238;-46
2022/03/17 01:34:26;;;;;;;25.83;19.87;;;10.00;99.90;;;;;;5055135;28;20195;-41
2022/03/17 01:36:51;;;;;;;27.70;19.50;;;10.00;99.90;;;;;;5054798;28;20177;-40
2022/03/17 01:39:17;;;;;;;26.47;19.33;;;10.00;99.90;;;;;;5054836;28;20184;-43
2022/03/17 01:41:43;;;;;;;25.67;17.87;;;10.00;99.90;;;;;;5054765;28;20649;-42
2022/03/17 01:44:08;;;;;;;27.10;19.67;;;10.00;99.90;;;;;;5054676;28;20266;-43
2022/03/17 01:47:26;;;;;;;26.03;18.70;;;10.00;99.90;;;;;;5054629;28;20189;-41
2022/03/17 01:49:20;;;;;;;26.67;20.37;;;10.00;99.90;;;;;;5054382;28;20677;-42
2022/03/17 01:51:47;;;;;;;29.30;21.37;;;10.00;99.90;;;;;;5054591;28;20639;-41
2022/03/17 01:54:14;;;;;;;30.03;20.60;;;10.00;99.90;;;;;;5054778;28;20188;-42
2022/03/17 01:56:40;;;;;;;25.63;19.30;;;10.00;99.90;;;;;;5036650;28;20189;-42
2022/03/17 01:59:06;;;;;;;29.70;20.50;;;10.00;99.90;;;;;;5054678;28;20290;-43
2022/03/17 02:01:31;;;;;;;31.10;20.30;;;9.90;99.90;;;;;;5036716;28;20208;-43
2022/03/17 02:03:57;;;;;;;30.80;20.40;;;9.90;99.90;;;;;;5055058;28;20554;-42
2022/03/17 02:06:23;;;;;;;28.70;21.37;;;9.90;99.90;;;;;;5054638;28;20652;-41
2022/03/17 02:08:49;;;;;;;28.33;19.97;;;9.90;99.90;;;;;;5054749;28;20609;-42
2022/03/17 02:13:59;;;;;;;29.13;21.23;;;9.90;99.90;;;;;;5054975;28;20231;-44
2022/03/17 02:16:27;;;;;;;29.17;20.40;;;9.80;99.90;;;;;;5036786;28;20177;-43
2022/03/17 02:18:53;;;;;;;29.50;21.27;;;9.80;99.90;;;;;;5052713;28;20236;-43
2022/03/17 02:21:19;;;;;;;29.13;19.23;;;9.80;99.90;;;;;;5054035;28;20219;-43
2022/03/17 02:26:31;;;;;;;30.07;20.90;;;9.90;99.90;;;;;;5054433;28;20171;-44
2022/03/17 02:28:59;;;;;;;30.43;20.30;;;9.80;99.90;;;;;;5054054;28;20216;-42
2022/03/17 02:31:25;;;;;;;30.20;20.07;;;9.80;99.90;;;;;;5053789;28;20176;-42
2022/03/17 02:33:51;;;;;;;27.13;19.97;;;9.80;99.90;;;;;;5053868;28;20176;-43
2022/03/17 02:36:18;;;;;;;29.50;19.67;;;9.80;99.90;;;;;;5053981;28;20276;-42
2022/03/17 02:38:44;;;;;;;30.33;19.27;;;9.80;99.90;;;;;;5035861;28;20200;-43
2022/03/17 02:41:21;;;;;;;29.87;18.80;;;9.80;99.90;;;;;;5055060;28;20195;-42
2022/03/17 02:43:56;;;;;;;28.57;20.57;;;9.80;99.90;;;;;;5054690;28;20168;-42
2022/03/17 02:46:22;;;;;;;28.33;20.23;;;9.80;99.90;;;;;;5054192;28;20530;-43
2022/03/17 02:48:47;;;;;;;28.23;19.87;;;9.80;99.90;;;;;;5053705;28;20211;-43
2022/03/17 02:51:14;;;;;;;30.00;19.60;;;9.80;99.90;;;;;;5053378;28;20660;-44
2022/03/17 02:53:39;;;;;;;30.80;20.87;;;9.80;99.90;;;;;;5053464;28;20200;-43
2022/03/17 02:56:05;;;;;;;31.60;20.57;;;9.80;99.90;;;;;;5035463;28;20278;-43
2022/03/17 02:58:31;;;;;;;28.67;20.73;;;9.90;99.90;;;;;;5053772;28;20283;-43
2022/03/17 03:00:57;;;;;;;29.93;21.57;;;9.80;99.90;;;;;;5053649;28;20254;-44
2022/03/17 03:03:23;;;;;;;27.47;18.73;;;9.80;99.90;;;;;;5053671;28;20705;-43
2022/03/17 03:05:49;;;;;;;28.13;20.40;;;9.80;99.90;;;;;;5053406;28;20176;-43
2022/03/17 03:08:15;;;;;;;28.47;20.23;;;9.80;99.90;;;;;;5053793;28;20227;-42
2022/03/17 03:10:41;;;;;;;26.37;19.60;;;9.80;99.90;;;;;;5052746;28;20208;-43
2022/03/17 03:13:07;;;;;;;26.20;19.23;;;9.80;99.90;;;;;;5052887;28;20209;-45
2022/03/17 03:15:33;;;;;;;27.03;20.37;;;9.80;99.90;;;;;;5036744;28;20173;-45
2022/03/17 03:17:59;;;;;;;27.33;18.97;;;9.80;99.90;;;;;;5055411;28;20253;-45
2022/03/17 03:20:25;;;;;;;25.83;18.57;;;9.80;99.90;;;;;;5055016;28;20176;-46
2022/03/17 03:22:53;;;;;;;28.70;19.63;;;9.80;99.90;;;;;;5054502;28;20176;-42
2022/03/17 03:25:18;;;;;;;25.33;18.47;;;9.70;99.90;;;;;;5053124;28;20218;-42
2022/03/17 03:27:44;;;;;;;25.20;17.63;;;9.70;99.90;;;;;;5053447;28;20200;-40
2022/03/17 03:30:11;;;;;;;29.77;18.70;;;9.70;99.90;;;;;;5053028;28;20208;-44
2022/03/17 03:32:39;;;;;;;26.53;17.87;;;9.70;99.90;;;;;;5053658;28;20608;-44
2022/03/17 03:37:22;;;;;;;28.23;19.80;;;9.70;99.90;;;;;;5053060;28;20714;-42
2022/03/17 03:37:54;;;;;;;30.27;17.70;;;9.70;99.90;;;;;;5053747;28;20210;-47
2022/03/17 03:40:19;;;;;;;28.93;18.17;;;9.70;99.90;;;;;;5054122;28;20591;-44
2022/03/17 03:42:45;;;;;;;25.33;18.40;;;9.70;99.90;;;;;;5054435;28;20181;-47
2022/03/17 03:45:11;;;;;;;28.90;19.07;;;9.70;99.90;;;;;;5054513;28;20663;-44
2022/03/17 03:47:36;;;;;;;26.63;18.73;;;9.70;99.90;;;;;;5054332;28;20207;-45
2022/03/17 03:50:03;;;;;;;26.20;18.37;;;9.70;99.90;;;;;;5054064;28;20691;-45
2022/03/17 03:52:29;;;;;;;28.23;19.77;;;9.70;99.90;;;;;;5036223;28;20176;-45
2022/03/17 03:54:54;;;;;;;27.00;18.37;;;9.70;99.90;;;;;;5054174;28;20197;-45
2022/03/17 03:57:20;;;;;;;30.87;20.87;;;9.70;99.90;;;;;;5053897;28;20215;-46
2022/03/17 03:59:46;;;;;;;26.97;19.40;;;9.70;99.90;;;;;;5053625;28;20233;-44
2022/03/17 04:02:11;;;;;;;27.20;19.20;;;9.70;99.90;;;;;;5053507;28;20207;-45
2022/03/17 04:04:41;;;;;;;29.67;18.80;;;9.70;99.90;;;;;;5053777;28;20177;-45
2022/03/17 04:07:12;;;;;;;27.73;18.63;;;9.70;99.90;;;;;;5053914;28;20169;-43
2022/03/17 04:09:40;;;;;;;29.30;18.37;;;9.70;99.90;;;;;;5054058;28;20201;-44
2022/03/17 04:12:08;;;;;;;28.97;18.50;;;9.70;99.90;;;;;;5054103;28;20176;-47
2022/03/17 04:14:34;;;;;;;28.33;18.37;;;9.80;99.90;;;;;;5051931;28;20177;-43
2022/03/17 04:17:00;;;;;;;27.20;18.80;;;9.80;99.90;;;;;;5052644;28;20188;-44
2022/03/17 04:19:27;;;;;;;28.27;19.23;;;9.80;99.90;;;;;;5034858;28;20184;-42
2022/03/17 04:21:53;;;;;;;26.87;18.80;;;9.80;99.90;;;;;;5036987;28;20545;-44
2022/03/17 04:24:20;;;;;;;29.80;18.90;;;9.80;99.90;;;;;;5056788;28;20204;-44
2022/03/17 04:26:47;;;;;;;37.13;20.03;;;9.80;99.90;;;;;;5056346;28;20180;-43
2022/03/17 04:29:14;;;;;;;34.67;20.73;;;9.90;99.90;;;;;;5039161;28;20196;-42
2022/03/17 04:31:42;;;;;;;33.90;20.53;;;10.00;99.90;;;;;;5038700;28;20165;-42
2022/03/17 04:34:08;;;;;;;31.40;18.90;;;10.10;99.90;;;;;;5038222;28;20172;-40
2022/03/17 04:36:35;;;;;;;31.47;18.80;;;10.20;99.90;;;;;;5056031;28;20222;-42
2022/03/17 04:39:03;;;;;;;28.43;18.00;;;10.20;99.90;;;;;;5038043;28;20236;-41
2022/03/17 04:41:30;;;;;;;29.53;18.77;;;10.30;99.90;;;;;;5055924;28;20255;-42
2022/03/17 04:43:56;;;;;;;35.10;20.10;;;10.30;99.90;;;;;;5056457;28;20667;-41
2022/03/17 04:46:22;;;;;;;32.03;19.67;;;10.30;99.90;;;;;;5055877;28;20249;-42
2022/03/17 04:48:48;;;;;;;30.40;20.00;;;10.30;99.90;;;;;;5054745;28;20211;-43
2022/03/17 04:51:14;;;;;;;33.50;19.47;;;10.30;99.90;;;;;;5037765;28;20208;-43
2022/03/17 04:53:39;;;;;;;36.77;20.10;;;10.40;99.90;;;;;;5037812;28;20180;-44
2022/03/17 04:56:10;;;;;;;33.67;18.70;;;10.30;99.90;;;;;;5055533;28;20193;-42
2022/03/17 04:58:38;;;;;;;27.10;16.80;;;10.40;99.90;;;;;;5037641;28;20668;-41
2022/03/17 05:01:05;;;;;;;29.07;17.80;;;10.30;99.90;;;;;;5055793;28;20173;-41
2022/03/17 05:03:32;;;;;;;24.80;16.60;;;10.40;99.90;;;;;;5037660;28;20228;-43
2022/03/17 05:05:58;;;;;;;19.73;15.07;;;10.30;99.90;;;;;;5055445;28;20191;-43
2022/03/17 05:08:24;;;;;;;21.47;14.50;;;10.20;99.90;;;;;;5055909;28;20302;-40
2022/03/17 05:10:52;;;;;;;25.93;17.73;;;10.10;99.90;;;;;;5037508;28;20287;-42
2022/03/17 05:13:19;;;;;;;26.40;18.67;;;10.00;99.90;;;;;;5055970;28;20527;-41
2022/03/17 05:15:49;;;;;;;25.17;17.73;;;9.80;99.90;;;;;;5054089;28;20176;-43
2022/03/17 05:18:15;;;;;;;28.03;17.50;;;9.80;99.90;;;;;;5055282;28;20203;-42
2022/03/17 05:20:42;;;;;;;26.70;19.40;;;9.70;99.90;;;;;;5055305;28;20642;-40
2022/03/17 05:23:10;;;;;;;27.80;19.03;;;9.60;99.90;;;;;;5055879;28;20574;-41
2022/03/17 05:25:38;;;;;;;30.17;20.07;;;9.60;99.90;;;;;;5055354;28;20271;-42
2022/03/17 05:28:05;;;;;;;28.53;20.60;;;9.50;99.90;;;;;;5055181;28;20660;-42
2022/03/17 05:30:32;;;;;;;34.67;21.97;;;9.50;99.90;;;;;;5055353;28;20205;-44
2022/03/17 05:32:58;;;;;;;33.00;22.10;;;9.40;99.90;;;;;;5054866;28;20177;-42
2022/03/17 05:35:24;;;;;;;30.50;20.77;;;9.40;99.90;;;;;;5055469;28;20233;-41
2022/03/17 05:37:50;;;;;;;33.50;23.13;;;9.40;99.90;;;;;;5054901;28;20189;-40
2022/03/17 05:40:18;;;;;;;32.97;23.50;;;9.40;99.90;;;;;;5054949;28;20178;-43
2022/03/17 05:42:47;;;;;;;35.27;22.93;;;9.30;99.90;;;;;;5054377;28;20229;-42
2022/03/17 05:45:15;;;;;;;22.97;15.47;;;9.30;99.90;;;;;;5036923;28;20184;-43
2022/03/17 05:47:46;;;;;;;31.37;20.70;;;9.30;99.90;;;;;;5054696;28;20546;-44
2022/03/17 05:50:14;;;;;;;32.40;17.73;;;9.20;99.90;;;;;;5036783;28;20200;-44
2022/03/17 05:52:44;;;;;;;32.93;21.57;;;9.20;99.90;;;;;;5054701;28;20589;-42
2022/03/17 05:55:13;;;;;;;39.77;25.30;;;9.10;99.90;;;;;;5053215;28;20200;-43
2022/03/17 05:57:43;;;;;;;34.43;20.27;;;9.10;99.90;;;;;;5054513;28;20243;-43
2022/03/17 06:00:11;;;;;;;33.20;22.13;;;9.10;99.90;;;;;;5055174;28;20160;-43
2022/03/17 06:02:39;;;;;;;32.33;23.13;;;9.00;99.90;;;;;;5054847;28;20553;-44
2022/03/17 06:05:06;;;;;;;32.17;21.60;;;9.00;99.90;;;;;;5036515;28;20180;-44
2022/03/17 06:07:40;;;;;;;25.90;17.63;;;8.90;99.90;;;;;;5054317;28;20196;-45
2022/03/17 06:10:08;;;;;;;21.17;13.13;;;8.90;99.90;;;;;;5054420;28;20189;-44
2022/03/17 06:12:34;;;;;;;17.07;10.93;;;8.90;99.90;;;;;;5054061;28;20267;-45
2022/03/17 06:15:02;;;;;;;21.40;12.30;;;8.80;99.90;;;;;;5036454;28;20633;-44
2022/03/17 06:17:38;;;;;;;15.93;10.67;;;8.80;99.90;;;;;;5053985;28;20185;-43
2022/03/17 06:20:04;;;;;;;19.07;12.57;;;8.70;99.90;;;;;;5054061;28;20220;-43
2022/03/17 06:22:29;;;;;;;20.00;12.40;;;8.70;99.90;;;;;;5054261;28;20188;-43
2022/03/17 06:24:55;;;;;;;21.93;13.40;;;8.70;99.90;;;;;;5036743;28;20187;-43
2022/03/17 06:27:20;;;;;;;15.47;11.97;;;8.70;99.90;;;;;;5055158;28;20199;-45
2022/03/17 06:29:46;;;;;;;19.43;13.40;;;8.60;99.90;;;;;;5055391;28;20614;-45
2022/03/17 06:32:11;;;;;;;20.10;11.90;;;8.60;99.90;;;;;;5055477;28;20172;-45
2022/03/17 06:38:01;;;;;;;14.63;10.80;;;8.60;99.90;;;;;;5054808;28;20241;-46
2022/03/17 06:40:28;;;;;;;13.00;10.33;;;8.60;99.90;;;;;;5054351;28;20176;-46
2022/03/17 06:42:55;;;;;;;18.83;9.97;;;8.60;99.90;;;;;;5054830;28;20186;-45
2022/03/17 06:45:21;;;;;;;16.70;10.60;;;8.50;99.90;;;;;;5054656;28;20636;-47
2022/03/17 06:47:47;;;;;;;16.63;9.63;;;8.50;99.90;;;;;;5054794;28;20278;-45
2022/03/17 06:50:15;;;;;;;14.73;9.77;;;8.50;99.90;;;;;;5054559;28;20229;-43
2022/03/17 06:52:41;;;;;;;12.77;8.37;;;8.40;99.90;;;;;;5054964;28;20168;-43
2022/03/17 06:55:07;;;;;;;15.07;7.60;;;8.40;99.90;;;;;;5055628;28;20680;-44
2022/03/17 06:57:33;;;;;;;10.30;7.37;;;8.40;99.90;;;;;;5056325;28;20263;-42
2022/03/17 07:00:07;;;;;;;15.17;7.97;;;8.40;99.90;;;;;;5036851;28;20219;-46
2022/03/17 07:02:33;;;;;;;13.50;6.83;;;8.30;99.90;;;;;;5055294;28;20223;-43
2022/03/17 07:04:58;;;;;;;9.87;6.33;;;8.30;99.90;;;;;;5037043;28;20557;-43
2022/03/17 07:07:24;;;;;;;11.43;6.20;;;8.30;99.90;;;;;;5054875;28;20228;-47
2022/03/17 07:09:50;;;;;;;6.33;5.30;;;8.30;99.90;;;;;;5055238;28;20214;-44
2022/03/17 07:12:15;;;;;;;8.00;5.47;;;8.30;99.90;;;;;;5055260;28;20168;-45
2022/03/17 07:14:41;;;;;;;8.77;5.60;;;8.30;99.90;;;;;;5055494;28;20179;-43
2022/03/17 07:17:07;;;;;;;11.00;6.33;;;8.30;99.90;;;;;;5055154;28;20268;-47
2022/03/17 07:19:34;;;;;;;13.03;5.27;;;8.30;99.90;;;;;;5037575;28;20184;-46
2022/03/17 07:22:00;;;;;;;7.43;4.97;;;8.30;99.90;;;;;;5056105;28;20266;-44
2022/03/17 07:24:26;;;;;;;10.77;5.00;;;8.30;99.90;;;;;;5037990;28;20230;-45
2022/03/17 07:26:52;;;;;;;7.37;4.70;;;8.30;99.90;;;;;;5056002;28;20180;-44
2022/03/17 07:29:17;;;;;;;9.17;4.60;;;8.30;99.90;;;;;;5055834;28;20180;-42
2022/03/17 07:31:43;;;;;;;6.60;3.83;;;8.30;99.90;;;;;;5056420;28;20177;-44
2022/03/17 07:34:09;;;;;;;8.07;4.20;;;8.30;99.90;;;;;;5038665;28;20195;-47
2022/03/17 07:36:34;;;;;;;6.93;4.03;;;8.30;99.90;;;;;;5039339;28;20618;-48
2022/03/17 07:39:03;;;;;;;10.63;4.50;;;8.30;99.90;;;;;;5039465;28;20235;-48
2022/03/17 07:41:34;;;;;;;8.20;4.17;;;8.20;99.90;;;;;;5056400;28;20175;-44
2022/03/17 07:44:02;;;;;;;8.80;4.60;;;8.20;99.90;;;;;;5055367;28;20224;-44
2022/03/17 07:46:28;;;;;;;8.67;4.47;;;8.20;99.90;;;;;;5035971;28;20188;-42
2022/03/17 07:48:54;;;;;;;9.77;5.03;;;8.20;99.90;;;;;;5036678;28;20204;-40
2022/03/17 07:51:20;;;;;;;9.00;5.03;;;8.20;99.90;;;;;;5057399;23;20226;-44
2022/03/17 07:53:46;;;;;;;7.70;4.33;;;8.20;99.90;;;;;;5075020;28;20167;-45
2022/03/17 07:56:12;;;;;;;6.23;3.87;;;8.10;99.90;;;;;;5095799;28;20178;-44
2022/03/17 07:58:39;;;;;;;8.73;4.47;;;8.10;99.90;;;;;;5097045;28;20779;-44
2022/03/17 08:01:05;;;;;;;7.73;4.10;;;8.10;99.90;;;;;;5096962;28;20189;-44
2022/03/17 08:03:32;;;;;;;6.70;4.50;;;8.10;99.90;;;;;;5097166;28;20179;-44
2022/03/17 08:05:58;;;;;;;8.80;4.53;;;8.20;99.90;;;;;;5097232;28;20189;-48
2022/03/17 08:08:34;;;;;;;7.53;4.27;;;8.10;99.90;;;;;;5096951;28;20194;-45
2022/03/17 08:11:03;;;;;;;7.23;4.43;;;8.10;99.90;;;;;;5096756;28;20677;-47
2022/03/17 08:26:53;;;;;;;7.67;4.80;;;8.00;99.90;;;;;;5096587;28;20204;-45
2022/03/17 08:29:18;;;;;;;10.80;4.80;;;8.00;99.90;;;;;;5096241;28;20170;-46
2022/03/17 08:31:44;;;;;;;8.80;3.53;;;8.10;99.90;;;;;;5078357;28;20551;-44
2022/03/17 08:34:10;;;;;;;6.53;4.30;;;8.10;99.90;;;;;;5096376;28;20175;-45
2022/03/17 08:36:36;;;;;;;6.80;4.30;;;8.10;99.90;;;;;;5078785;28;20217;-43
2022/03/17 08:39:02;;;;;;;5.90;4.20;;;8.20;99.90;;;;;;5096698;28;20194;-46
2022/03/17 08:41:28;;;;;;;7.67;4.00;;;8.20;99.90;;;;;;5096981;28;20253;-43
2022/03/17 08:43:54;;;;;;;6.03;3.40;;;8.20;99.90;;;;;;5096769;28;20252;-45
2022/03/17 08:49:22;;;;;;;6.63;3.70;;;8.20;99.90;;;;;;5096919;28;20209;-45
2022/03/17 08:51:53;;;;;;;7.30;3.80;;;8.20;99.90;;;;;;5080674;28;20206;-43
2022/03/17 08:54:24;;;;;;;7.63;4.20;;;8.20;99.90;;;;;;5096607;28;20297;-42
2022/03/17 08:56:59;;;;;;;11.77;3.73;;;8.20;99.90;;;;;;5077799;28;20631;-46
2022/03/17 08:59:30;;;;;;;8.87;4.00;;;8.20;99.90;;;;;;5095945;28;20168;-42
2022/03/17 09:02:00;;;;;;;7.00;4.13;;;8.20;99.90;;;;;;5096177;28;20530;-46
2022/03/17 09:04:27;;;;;;;12.63;4.93;;;8.30;99.90;;;;;;5095995;28;20175;-45
2022/03/17 09:06:58;;;;;;;12.90;6.37;;;8.30;99.90;;;;;;5095513;28;20175;-44
2022/03/17 09:09:28;;;;;;;6.50;4.77;;;8.40;99.90;;;;;;5096124;28;20285;-45
2022/03/17 09:11:54;;;;;;;11.97;4.57;;;8.50;99.90;;;;;;5096347;28;20187;-45
2022/03/17 09:14:21;;;;;;;12.67;4.90;;;8.50;99.90;;;;;;5095704;28;20662;-45
2022/03/17 09:17:11;;;;;;;11.37;4.60;;;8.50;99.90;;;;;;5095513;28;20263;-43
2022/03/17 09:19:37;;;;;;;6.93;4.63;;;8.60;99.90;;;;;;5095751;28;20186;-44
2022/03/17 09:22:03;;;;;;;7.07;4.60;;;8.60;99.90;;;;;;5095454;28;20646;-44
2022/03/17 09:24:30;;;;;;;10.30;4.10;;;8.60;99.90;;;;;;5077263;28;20190;-46
2022/03/17 09:26:57;;;;;;;6.90;3.30;;;8.70;99.90;;;;;;5077173;28;20668;-46
2022/03/17 09:29:22;;;;;;;10.70;3.97;;;8.80;99.90;;;;;;5095257;28;20305;-43
2022/03/17 09:31:49;;;;;;;7.23;3.10;;;8.80;99.90;;;;;;5095512;28;20631;-46
2022/03/17 09:34:14;;;;;;;6.93;3.07;;;8.80;99.90;;;;;;5077200;28;20183;-43
2022/03/17 09:43:29;;;;;;;4.40;3.73;;;8.80;99.90;;;;;;5075184;28;20250;-45
2022/03/17 09:45:56;;;;;;;9.67;4.43;;;8.80;99.90;;;;;;5076667;28;20179;-45
2022/03/17 09:48:24;;;;;;;6.73;4.50;;;8.70;99.90;;;;;;5076770;28;20202;-44
2022/03/17 09:50:59;;;;;;;9.90;4.30;;;8.70;99.90;;;;;;5095115;28;20210;-44
2022/03/17 09:53:26;;;;;;;7.10;4.37;;;8.70;99.90;;;;;;5076830;28;20178;-44
2022/03/17 09:55:52;;;;;;;8.90;5.07;;;8.70;99.90;;;;;;5095179;28;20179;-44
2022/03/17 09:58:18;;;;;;;7.97;4.77;;;8.70;99.90;;;;;;5094789;28;20191;-44
2022/03/17 10:00:52;;;;;;;9.57;4.60;;;8.70;99.90;;;;;;5077227;28;20634;-44
2022/03/17 10:03:28;;;;;;;6.67;4.00;;;8.80;99.90;;;;;;5095052;28;20163;-44
2022/03/17 10:05:57;;;;;;;11.13;4.63;;;8.70;99.90;;;;;;5076525;28;20171;-44
2022/03/17 10:08:23;;;;;;;6.47;3.87;;;8.70;99.90;;;;;;5094814;28;20194;-47
2022/03/17 10:10:52;;;;;;;9.07;4.53;;;8.80;99.90;;;;;;5094471;28;20213;-40
2022/03/17 10:13:28;;;;;;;7.53;4.53;;;8.80;99.90;;;;;;5094867;28;20159;-40
2022/03/17 10:16:22;;;;;;;7.73;4.70;;;8.70;99.90;;;;;;5077524;28;20611;-37
2022/03/17 10:19:40;;;;;;;12.47;4.90;;;8.70;99.90;;;;;;5060952;28;20570;-39
2022/03/17 10:22:37;;;;;;;;;;;;;;;;;;;;;
2022/03/17 10:25:40;;;;;;;6.73;3.67;;;8.70;99.90;;;;;;5076702;28;20185;-39
2022/03/17 10:28:37;;;;;;;8.17;3.50;;;8.70;99.90;;;;;;5075655;28;20221;-40
2022/03/17 10:48:34;;;;;;;4.43;1.77;;;9.40;99.90;;;;;;5073951;28;20689;-38
2022/03/17 10:52:04;;;;;;;9.30;1.70;;;9.50;99.90;;;;;;5056325;28;20291;-38
2022/03/17 10:55:17;;;;;;;5.73;1.40;;;9.50;99.90;;;;;;5053409;28;20219;-40
2022/03/17 11:02:05;;;;;;;8.87;2.33;;;9.50;99.90;;;;;;5072949;28;20260;-40
2022/03/17 11:05:53;;;;;;;7.67;1.80;;;9.40;99.90;;;;;;5091357;28;20243;-38
2022/03/17 11:08:47;;;;;;;4.90;1.60;;;9.40;99.90;;;;;;5089303;28;20208;-37
2022/03/17 11:11:19;;;;;;;9.20;1.83;;;9.50;99.90;;;;;;5093461;28;20234;-40
2022/03/17 11:21:33;;;;;;;5.53;1.10;;;9.80;99.90;;;;;;5093599;28;20195;-40
2022/03/17 11:24:05;;;;;;;4.17;1.70;;;9.80;99.90;;;;;;5088347;28;20194;-41
2022/03/17 11:26:43;;;;;;;6.10;1.57;;;9.80;99.90;;;;;;5093854;28;20182;-40
2022/03/17 11:29:25;;;;;;;4.53;1.50;;;9.90;99.90;;;;;;5093873;28;20220;-39
2022/03/17 11:31:58;;;;;;;4.07;1.67;;;9.90;99.90;;;;;;5097293;28;20179;-44
2022/03/17 11:34:47;;;;;;;20.87;9.17;;;9.90;99.90;;;;;;5097656;28;20173;-44
2022/03/17 11:37:19;;;;;;;6.37;1.80;;;9.90;99.90;;;;;;5087512;28;20225;-44
2022/03/17 11:39:51;;;;;;;6.57;1.77;;;9.90;99.90;;;;;;5097737;28;20309;-44
2022/03/17 11:42:39;;;;;;;5.97;2.07;;;10.10;99.90;;;;;;5097459;28;20223;-45
2022/03/17 11:45:10;;;;;;;10.27;2.43;;;10.10;99.90;;;;;;5097643;28;20238;-42
2022/03/17 11:47:37;;;;;;;9.37;1.90;;;10.20;99.90;;;;;;5097424;28;20750;-45
2022/03/17 11:50:34;;;;;;;8.80;1.90;;;10.20;99.90;;;;;;5097109;28;20194;-44
2022/03/17 11:53:05;;;;;;;7.03;2.07;;;10.30;99.90;;;;;;5097193;28;20265;-44
2022/03/17 11:55:46;;;;;;;7.27;1.97;;;10.40;99.90;;;;;;5097664;28;20158;-43
2022/03/17 11:58:26;;;;;;;6.80;1.90;;;10.40;99.90;;;;;;5097089;28;20202;-42
2022/03/17 12:01:25;;;;;;;10.07;2.20;;;10.50;99.90;;;;;;5097645;28;20602;-45
2022/03/17 12:03:58;;;;;;;5.33;1.97;;;10.60;99.90;;;;;;5081633;28;20681;-44
2022/03/17 12:06:28;;;;;;;6.60;1.33;;;10.60;99.90;;;;;;5096941;28;20186;-44
2022/03/17 12:09:04;;;;;;;7.53;1.63;;;10.60;99.90;;;;;;5096906;28;20601;-46
2022/03/17 12:11:38;;;;;;;7.00;1.70;;;10.70;99.90;;;;;;5096740;28;20206;-46
2022/03/17 12:14:25;;;;;;;5.33;1.50;;;10.70;99.90;;;;;;5096603;28;20695;-43
2022/03/17 12:16:55;;;;;;;8.03;1.73;;;10.80;99.90;;;;;;5096909;28;20166;-44
2022/03/17 12:19:35;;;;;;;7.87;1.87;;;10.70;99.90;;;;;;5096683;28;20274;-45
2022/03/17 12:22:01;;;;;;;4.13;1.60;;;10.70;99.90;;;;;;5078474;28;20174;-45
2022/03/17 12:24:33;;;;;;;6.73;2.23;;;10.70;99.90;;;;;;5096695;28;20209;-46
2022/03/17 12:27:08;;;;;;;8.60;2.47;;;10.70;99.90;;;;;;5096422;28;20198;-41
2022/03/17 12:29:34;;;;;;;25.00;9.67;;;10.70;99.90;;;;;;5096688;28;20209;-41
2022/03/17 12:32:15;;;;;;;16.07;7.17;;;10.70;99.90;;;;;;5096794;28;20167;-41
2022/03/17 12:34:47;;;;;;;17.13;5.93;;;10.80;99.90;;;;;;5078382;28;20622;-42
2022/03/17 12:37:14;;;;;;;12.27;2.97;;;10.80;99.90;;;;;;5096497;28;20202;-39
2022/03/17 12:39:40;;;;;;;38.33;22.40;;;10.90;99.90;;;;;;5078094;28;20281;-42
2022/03/17 12:42:39;;;;;;;12.40;5.40;;;10.80;99.90;;;;;;5095105;28;20262;-41
2022/03/17 12:45:07;;;;;;;7.83;2.30;;;10.80;99.90;;;;;;5080823;28;20564;-38
2022/03/17 12:47:36;;;;;;;8.43;1.93;;;10.80;99.90;;;;;;5096011;28;20281;-38
2022/03/17 12:50:08;;;;;;;8.03;2.03;;;10.90;99.90;;;;;;5095981;28;20241;-40
2022/03/17 12:52:36;;;;;;;10.13;2.50;;;10.90;99.90;;;;;;5095949;28;20700;-39
2022/03/17 12:55:04;;;;;;;6.77;2.53;;;10.90;99.90;;;;;;5096031;28;20716;-43
2022/03/17 12:57:32;;;;;;;8.43;3.30;;;10.80;99.90;;;;;;5078571;28;20226;-41
2022/03/17 12:59:58;;;;;;;6.57;2.00;;;10.70;99.90;;;;;;5078487;28;20617;-40
2022/03/17 13:02:26;;;;;;;4.93;2.77;;;10.70;99.90;;;;;;5096364;28;20273;-42
2022/03/17 13:04:56;;;;;;;9.63;1.90;;;10.70;99.90;;;;;;5095793;28;20246;-38
2022/03/17 13:07:24;;;;;;;8.57;2.80;;;10.60;99.90;;;;;;5095830;28;20213;-40
2022/03/17 13:09:50;;;;;;;9.70;4.07;;;10.50;99.90;;;;;;5095746;28;20221;-40
2022/03/17 13:15:12;;;;;;;12.70;2.83;;;10.50;99.90;;;;;;5096242;28;20171;-40
2022/03/17 13:17:41;;;;;;;4.37;1.87;;;10.50;99.90;;;;;;5095923;28;20310;-40
2022/03/17 13:20:24;;;;;;;11.37;2.60;;;10.40;99.90;;;;;;5095631;28;20261;-39
2022/03/17 13:23:04;;;;;;;12.70;1.93;;;10.40;99.90;;;;;;5096179;28;20167;-41
2022/03/17 13:25:32;;;;;;;8.77;1.93;;;10.40;99.90;;;;;;5095619;28;20200;-40
2022/03/17 13:28:04;;;;;;;4.67;2.00;;;10.40;99.90;;;;;;5095367;28;20685;-37
2022/03/17 13:30:34;;;;;;;7.07;2.30;;;10.40;99.90;;;;;;5095636;28;20199;-41
2022/03/17 13:33:12;;;;;;;5.83;2.40;;;10.40;99.90;;;;;;5077572;28;20179;-39
2022/03/17 13:35:46;;;;;;;7.57;2.27;;;10.40;99.90;;;;;;5077142;28;20272;-43
2022/03/17 13:38:16;;;;;;;10.00;3.67;;;10.50;99.90;;;;;;5077054;28;20265;-39
2022/03/17 13:40:57;;;;;;;6.77;1.90;;;10.40;99.90;;;;;;5095603;28;20244;-41
2022/03/17 13:43:33;;;;;;;6.60;2.10;;;10.40;99.90;;;;;;5095039;28;20171;-41
2022/03/17 13:46:17;;;;;;;7.33;2.83;;;10.40;99.90;;;;;;5095200;28;20194;-41
2022/03/17 13:48:43;;;;;;;7.87;2.07;;;10.30;99.90;;;;;;5094984;28;20194;-38
2022/03/17 13:51:09;;;;;;;5.07;1.67;;;10.30;99.90;;;;;;5094742;28;20573;-40
2022/03/17 13:53:39;;;;;;;6.17;1.80;;;10.30;99.90;;;;;;5094925;28;20171;-40
2022/03/17 13:56:11;;;;;;;4.80;1.70;;;10.30;99.90;;;;;;5095954;28;20193;-40
2022/03/17 13:58:43;;;;;;;9.90;2.63;;;10.30;99.90;;;;;;5095853;28;20513;-41
2022/03/17 14:01:16;;;;;;;7.70;1.80;;;10.30;99.90;;;;;;5076695;28;20179;-41